QLK85D YMML-YWYY

Flight info

Callsign QLK85D
Flight time 0h 44m
Altitude 19000
Route ML H169 SUNTI W495 WYY
Aircraft DH8D/M-SDFGHRZ/LB1

Departure

Time 2026-04-15 06:13
Airport Melbourne Airport (YMML)

Arrival

Time 2026-04-15 06:57
Airport Wynyard Airport (YWYY)
Time Latitude Longitude Altitude Speed Heading
2026-04-15 05:43 -37.66695 144.85153 413 ft 0 kts 81°
2026-04-15 06:05 -37.66695 144.85155 412 ft 0 kts 81°
2026-04-15 06:05 -37.66695 144.85153 412 ft 0 kts 81°
2026-04-15 06:05 -37.66696 144.85147 412 ft 2 kts 82°
2026-04-15 06:05 -37.66697 144.85129 412 ft 2 kts 91°
2026-04-15 06:06 -37.66695 144.85110 412 ft 1 kts 101°
2026-04-15 06:06 -37.66699 144.85089 412 ft 2 kts 35°
2026-04-15 06:06 -37.66711 144.85086 413 ft 1 kts 351°
2026-04-15 06:06 -37.66713 144.85086 413 ft 0 kts 350°
2026-04-15 06:09 -37.66643 144.85074 412 ft 17 kts 352°
2026-04-15 06:09 -37.66521 144.85054 412 ft 16 kts 351°
2026-04-15 06:10 -37.66452 144.85013 412 ft 17 kts 320°
2026-04-15 06:10 -37.66356 144.84918 412 ft 5 kts 322°
2026-04-15 06:10 -37.66352 144.84914 412 ft 0 kts 321°
2026-04-15 06:11 -37.66328 144.84891 412 ft 12 kts 323°
2026-04-15 06:11 -37.66249 144.84811 412 ft 13 kts 320°
2026-04-15 06:12 -37.66221 144.84747 412 ft 0 kts 273°
2026-04-15 06:12 -37.66209 144.84543 414 ft 69 kts 274°
2026-04-15 06:12 -37.66152 144.83574 448 ft 139 kts 274°
2026-04-15 06:13 -37.66077 144.82315 927 ft 153 kts 274°
2026-04-15 06:13 -37.66000 144.80898 1474 ft 172 kts 274°
2026-04-15 06:13 -37.66172 144.79369 2034 ft 188 kts 248°
2026-04-15 06:13 -37.66841 144.77411 3297 ft 179 kts 248°
2026-04-15 06:14 -37.67335 144.76567 3761 ft 187 kts 221°
2026-04-15 06:14 -37.68610 144.76176 4262 ft 203 kts 172°
2026-04-15 06:14 -37.69918 144.76897 4887 ft 210 kts 154°
2026-04-15 06:14 -37.71190 144.77763 5565 ft 211 kts 156°
2026-04-15 06:15 -37.72490 144.78598 6216 ft 212 kts 157°
2026-04-15 06:15 -37.73830 144.79422 6855 ft 214 kts 159°
2026-04-15 06:15 -37.75610 144.80475 7724 ft 214 kts 160°
2026-04-15 06:15 -37.76958 144.81249 8333 ft 215 kts 161°
2026-04-15 06:16 -37.78331 144.82022 8937 ft 216 kts 162°
2026-04-15 06:16 -37.79238 144.82527 9350 ft 217 kts 162°
2026-04-15 06:16 -37.81084 144.83545 10197 ft 218 kts 163°
2026-04-15 06:16 -37.82516 144.84323 10553 ft 233 kts 163°
2026-04-15 06:17 -37.84014 144.85135 11056 ft 238 kts 163°
2026-04-15 06:17 -37.85027 144.85684 11441 ft 240 kts 162°
2026-04-15 06:17 -37.87100 144.86809 12167 ft 244 kts 163°
2026-04-15 06:17 -37.88128 144.87366 12521 ft 245 kts 162°
2026-04-15 06:18 -37.89723 144.88228 13030 ft 248 kts 162°
2026-04-15 06:18 -37.91309 144.89082 13525 ft 250 kts 162°
2026-04-15 06:18 -37.92912 144.89947 14006 ft 253 kts 163°
2026-04-15 06:18 -37.94544 144.90828 14524 ft 254 kts 163°
2026-04-15 06:19 -37.96176 144.91707 15036 ft 255 kts 163°
2026-04-15 06:19 -37.97800 144.92581 15510 ft 257 kts 163°
2026-04-15 06:19 -38.00002 144.93767 16123 ft 260 kts 163°
2026-04-15 06:19 -38.01128 144.94374 16418 ft 262 kts 164°
2026-04-15 06:20 -38.02808 144.95279 16856 ft 263 kts 164°
2026-04-15 06:20 -38.04491 144.96187 17305 ft 264 kts 164°
2026-04-15 06:20 -38.06199 144.97108 17718 ft 267 kts 164°
2026-04-15 06:20 -38.08486 144.98341 18281 ft 269 kts 164°
2026-04-15 06:21 -38.09632 144.98961 18589 ft 269 kts 164°
2026-04-15 06:21 -38.11371 144.99898 18849 ft 277 kts 164°
2026-04-15 06:21 -38.13180 145.00867 18949 ft 291 kts 164°
2026-04-15 06:21 -38.15114 145.01904 18970 ft 306 kts 163°
2026-04-15 06:22 -38.17103 145.02975 18973 ft 319 kts 163°
2026-04-15 06:22 -38.19897 145.04488 18968 ft 334 kts 163°
2026-04-15 06:22 -38.21330 145.05264 18969 ft 340 kts 163°
2026-04-15 06:22 -38.23549 145.06468 18968 ft 347 kts 163°
2026-04-15 06:23 -38.25791 145.07686 18968 ft 353 kts 163°
2026-04-15 06:23 -38.28049 145.08914 18964 ft 358 kts 162°
2026-04-15 06:23 -38.30343 145.10162 18962 ft 361 kts 162°
2026-04-15 06:23 -38.32668 145.11429 18955 ft 364 kts 162°
2026-04-15 06:24 -38.35006 145.12701 18957 ft 366 kts 162°
2026-04-15 06:24 -38.37367 145.13988 18956 ft 367 kts 162°
2026-04-15 06:24 -38.39702 145.15260 18967 ft 368 kts 163°
2026-04-15 06:24 -38.42073 145.16553 18955 ft 369 kts 163°
2026-04-15 06:25 -38.44447 145.17848 18948 ft 370 kts 162°
2026-04-15 06:25 -38.46793 145.19128 18955 ft 370 kts 162°
2026-04-15 06:25 -38.49169 145.20427 18960 ft 370 kts 162°
2026-04-15 06:25 -38.51580 145.21487 18940 ft 363 kts 173°
2026-04-15 06:26 -38.54082 145.22006 18950 ft 361 kts 178°
2026-04-15 06:26 -38.56558 145.22464 18956 ft 361 kts 178°
2026-04-15 06:26 -38.59043 145.22920 18961 ft 361 kts 178°
2026-04-15 06:26 -38.61532 145.23381 18955 ft 361 kts 178°
2026-04-15 06:27 -38.64027 145.23846 18950 ft 361 kts 178°
2026-04-15 06:27 -38.66500 145.24310 18947 ft 361 kts 178°
2026-04-15 06:27 -38.68995 145.24780 18949 ft 361 kts 178°
2026-04-15 06:27 -38.71468 145.25247 18952 ft 361 kts 178°
2026-04-15 06:28 -38.73983 145.25723 18952 ft 361 kts 178°
2026-04-15 06:28 -38.76477 145.26196 18954 ft 361 kts 178°
2026-04-15 06:28 -38.78952 145.26672 18945 ft 362 kts 177°
2026-04-15 06:28 -38.81456 145.27171 18948 ft 362 kts 177°
2026-04-15 06:29 -38.83962 145.27673 18953 ft 362 kts 178°
2026-04-15 06:29 -38.86445 145.28169 18943 ft 363 kts 178°
2026-04-15 06:29 -38.88931 145.28667 18948 ft 363 kts 178°
2026-04-15 06:29 -38.92291 145.29340 18946 ft 364 kts 178°
2026-04-15 06:30 -38.93959 145.29674 18948 ft 364 kts 178°
2026-04-15 06:30 -38.96429 145.30168 18945 ft 364 kts 178°
2026-04-15 06:30 -38.98939 145.30672 18942 ft 363 kts 178°
2026-04-15 06:30 -39.01424 145.31171 18942 ft 363 kts 177°
2026-04-15 06:31 -39.04769 145.31842 18943 ft 362 kts 177°
2026-04-15 06:31 -39.06417 145.32175 18945 ft 361 kts 178°
2026-04-15 06:31 -39.08898 145.32672 18946 ft 361 kts 177°
2026-04-15 06:31 -39.11403 145.33177 18944 ft 361 kts 178°
2026-04-15 06:32 -39.13865 145.33672 18942 ft 360 kts 178°
2026-04-15 06:32 -39.16356 145.34174 18939 ft 360 kts 178°
2026-04-15 06:32 -39.18833 145.34672 18941 ft 360 kts 178°
2026-04-15 06:32 -39.21309 145.35172 18944 ft 360 kts 178°
2026-04-15 06:33 -39.23791 145.35672 18943 ft 360 kts 178°
2026-04-15 06:33 -39.26239 145.36165 18943 ft 360 kts 178°
2026-04-15 06:33 -39.28722 145.36667 18941 ft 360 kts 178°
2026-04-15 06:33 -39.31203 145.37169 18940 ft 360 kts 178°
2026-04-15 06:34 -39.33693 145.37672 18937 ft 361 kts 178°
2026-04-15 06:34 -39.36168 145.38173 18935 ft 361 kts 178°
2026-04-15 06:34 -39.38646 145.38675 18939 ft 360 kts 178°
2026-04-15 06:34 -39.41113 145.39175 18940 ft 360 kts 178°
2026-04-15 06:35 -39.43601 145.39681 18940 ft 360 kts 178°
2026-04-15 06:35 -39.46074 145.40183 18936 ft 360 kts 178°
2026-04-15 06:35 -39.48562 145.40688 18931 ft 359 kts 178°
2026-04-15 06:35 -39.51056 145.41196 18934 ft 360 kts 178°
2026-04-15 06:36 -39.53511 145.41695 18937 ft 360 kts 178°
2026-04-15 06:36 -39.55990 145.42200 18934 ft 360 kts 178°
2026-04-15 06:36 -39.58471 145.42705 18932 ft 360 kts 178°
2026-04-15 06:36 -39.60958 145.43213 18937 ft 360 kts 178°
2026-04-15 06:37 -39.63423 145.43715 18933 ft 360 kts 178°
2026-04-15 06:37 -39.65903 145.44225 18928 ft 358 kts 178°
2026-04-15 06:37 -39.68374 145.44730 18929 ft 356 kts 178°
2026-04-15 06:37 -39.70817 145.45230 18931 ft 356 kts 178°
2026-04-15 06:38 -39.73249 145.45728 18930 ft 355 kts 178°
2026-04-15 06:38 -39.75714 145.46233 18928 ft 355 kts 178°
2026-04-15 06:38 -39.78130 145.46725 18926 ft 355 kts 178°
2026-04-15 06:38 -39.80565 145.47226 18928 ft 354 kts 178°
2026-04-15 06:39 -39.83025 145.47733 18928 ft 354 kts 178°
2026-04-15 06:39 -39.85461 145.48228 18929 ft 354 kts 178°
2026-04-15 06:39 -39.87892 145.48730 18927 ft 354 kts 178°
2026-04-15 06:39 -39.90314 145.49228 18928 ft 354 kts 178°
2026-04-15 06:40 -39.92751 145.49733 18927 ft 353 kts 178°
2026-04-15 06:40 -39.95192 145.50235 18926 ft 353 kts 178°
2026-04-15 06:40 -39.97601 145.50731 18925 ft 353 kts 178°
2026-04-15 06:40 -40.00046 145.51305 18911 ft 357 kts 173°
2026-04-15 06:41 -40.02409 145.52385 18934 ft 362 kts 166°
2026-04-15 06:41 -40.04744 145.53609 18934 ft 363 kts 165°
2026-04-15 06:41 -40.07102 145.54849 18932 ft 363 kts 165°
2026-04-15 06:41 -40.09448 145.56084 18924 ft 363 kts 166°
2026-04-15 06:42 -40.11791 145.57314 18915 ft 364 kts 166°
2026-04-15 06:42 -40.14148 145.58548 18908 ft 364 kts 166°
2026-04-15 06:42 -40.16481 145.59770 18910 ft 364 kts 166°
2026-04-15 06:42 -40.18869 145.61015 18609 ft 373 kts 166°
2026-04-15 06:43 -40.21284 145.62273 18167 ft 379 kts 166°
2026-04-15 06:43 -40.23724 145.63556 17671 ft 368 kts 165°
2026-04-15 06:43 -40.26064 145.64792 17197 ft 364 kts 166°
2026-04-15 06:43 -40.28389 145.66014 16716 ft 361 kts 165°
2026-04-15 06:44 -40.30703 145.67232 16241 ft 357 kts 165°
2026-04-15 06:44 -40.33008 145.68442 15768 ft 354 kts 165°
2026-04-15 06:44 -40.35318 145.69653 15297 ft 352 kts 165°
2026-04-15 06:44 -40.37569 145.70836 14835 ft 350 kts 165°
2026-04-15 06:45 -40.39807 145.72011 14373 ft 348 kts 165°
2026-04-15 06:45 -40.42065 145.73198 13907 ft 346 kts 165°
2026-04-15 06:45 -40.44276 145.74361 13461 ft 344 kts 165°
2026-04-15 06:45 -40.46490 145.75525 13005 ft 342 kts 165°
2026-04-15 06:46 -40.48707 145.76692 12547 ft 340 kts 165°
2026-04-15 06:46 -40.50884 145.77838 12092 ft 338 kts 165°
2026-04-15 06:46 -40.53075 145.78993 11647 ft 336 kts 165°
2026-04-15 06:46 -40.55212 145.80121 11212 ft 333 kts 165°
2026-04-15 06:47 -40.57378 145.81264 10770 ft 330 kts 165°
2026-04-15 06:47 -40.59464 145.82378 10383 ft 312 kts 164°
2026-04-15 06:47 -40.61411 145.83421 9990 ft 296 kts 165°
2026-04-15 06:47 -40.63266 145.84413 9611 ft 283 kts 165°
2026-04-15 06:48 -40.65051 145.85365 9248 ft 271 kts 165°
2026-04-15 06:48 -40.66771 145.86276 8903 ft 267 kts 166°
2026-04-15 06:48 -40.68519 145.87189 8547 ft 270 kts 165°
2026-04-15 06:48 -40.70277 145.88110 8189 ft 273 kts 165°
2026-04-15 06:49 -40.72044 145.89040 7824 ft 276 kts 165°
2026-04-15 06:49 -40.73834 145.89984 7453 ft 278 kts 164°
2026-04-15 06:49 -40.75624 145.90935 7079 ft 274 kts 164°
2026-04-15 06:50 -40.79115 145.92795 6366 ft 268 kts 164°
2026-04-15 06:50 -40.80826 145.93706 6015 ft 268 kts 163°
2026-04-15 06:50 -40.82553 145.94623 5659 ft 267 kts 163°
2026-04-15 06:50 -40.84296 145.95550 5300 ft 266 kts 163°
2026-04-15 06:51 -40.85990 145.96452 4949 ft 266 kts 163°
2026-04-15 06:51 -40.87711 145.97369 4596 ft 265 kts 162°
2026-04-15 06:51 -40.89406 145.98274 4247 ft 263 kts 162°
2026-04-15 06:51 -40.91098 145.99178 3900 ft 260 kts 162°
2026-04-15 06:52 -40.92744 146.00064 3555 ft 250 kts 162°
2026-04-15 06:52 -40.94321 146.00864 3245 ft 237 kts 168°
2026-04-15 06:52 -40.95880 146.00768 3129 ft 216 kts 205°
2026-04-15 06:52 -40.97197 145.99905 3092 ft 211 kts 212°
2026-04-15 06:53 -40.98495 145.98985 3075 ft 213 kts 212°
2026-04-15 06:53 -40.99806 145.98039 3066 ft 214 kts 212°
2026-04-15 06:53 -41.01113 145.97082 3043 ft 214 kts 213°
2026-04-15 06:53 -41.02156 145.95714 2859 ft 214 kts 246°
2026-04-15 06:54 -41.02304 145.93762 2695 ft 217 kts 276°
2026-04-15 06:54 -41.02078 145.91753 2463 ft 220 kts 278°
2026-04-15 06:54 -41.01844 145.89844 2211 ft 205 kts 278°
2026-04-15 06:54 -41.01617 145.88019 1968 ft 190 kts 278°
2026-04-15 06:55 -41.01408 145.86345 1758 ft 183 kts 278°
2026-04-15 06:55 -41.01195 145.84670 1560 ft 190 kts 278°
2026-04-15 06:55 -41.00985 145.82970 1294 ft 183 kts 278°
2026-04-15 06:55 -41.00786 145.81354 1049 ft 173 kts 278°
2026-04-15 06:56 -41.00589 145.79785 848 ft 170 kts 279°
2026-04-15 06:56 -41.00407 145.78319 621 ft 154 kts 279°
2026-04-15 06:56 -41.00246 145.76991 402 ft 137 kts 279°
2026-04-15 06:56 -41.00090 145.75769 258 ft 130 kts 279°
2026-04-15 06:57 -40.99953 145.74605 108 ft 127 kts 281°
2026-04-15 06:57 -40.99817 145.73520 52 ft 97 kts 278°
2026-04-15 06:57 -40.99741 145.72906 63 ft 39 kts 278°
2026-04-15 06:57 -40.99710 145.72658 67 ft 25 kts 280°
2026-04-15 06:58 -40.99634 145.72525 68 ft 22 kts
2026-04-15 06:58 -40.99575 145.72534 67 ft 0 kts
2026-04-15 06:58 -40.99539 145.72540 66 ft 14 kts
2026-04-15 06:59 -40.99439 145.72557 65 ft 7 kts
2026-04-15 06:59 -40.99392 145.72546 65 ft 3 kts 327°
2026-04-15 06:59 -40.99388 145.72543 65 ft 0 kts 325°